Time;durP1;ratioP1;P1;durP2;ratioP2;P2;SDS_P1;SDS_P2;PMS_P1;PMS_P2;Temp;Humidity;BMP_temperature;BMP_pressure;BME280_temperature;BME280_humidity;BME280_pressure;Samples;Min_cycle;Max_cycle;Signal;HPM_P1;HPM_P2
2021/01/01 00:01:08;;;;;;;9.35;5.63;;;0.10;99.90;;;;;;4775405;29;20074;-78
2021/01/01 00:03:40;;;;;;;12.32;7.55;;;0.10;99.90;;;;;;4790061;29;20047;-78
2021/01/01 00:06:11;;;;;;;10.77;6.60;;;0.10;99.90;;;;;;4774854;30;20055;-78
2021/01/01 00:08:38;;;;;;;11.35;6.50;;;0.10;99.90;;;;;;4774326;29;20142;-79
2021/01/01 00:11:04;;;;;;;11.15;6.30;;;0.00;99.90;;;;;;4773767;30;20079;-78
2021/01/01 00:13:31;;;;;;;9.68;6.57;;;0.00;99.90;;;;;;4802989;24;20051;-78
2021/01/01 00:16:03;;;;;;;10.98;6.28;;;0.00;99.90;;;;;;4786947;29;20051;-78
2021/01/01 00:18:30;;;;;;;10.88;6.75;;;0.00;99.90;;;;;;4772244;30;20044;-78
2021/01/01 00:21:01;;;;;;;10.75;7.00;;;-0.10;99.90;;;;;;4772303;29;20112;-78
2021/01/01 00:23:33;;;;;;;11.57;7.05;;;-0.10;99.90;;;;;;4755562;30;20048;-78
2021/01/01 00:26:00;;;;;;;12.07;6.82;;;-0.10;99.90;;;;;;4769439;29;20517;-78
2021/01/01 00:28:32;;;;;;;11.55;7.38;;;-0.20;99.90;;;;;;4754771;30;20048;-78
2021/01/01 00:31:03;;;;;;;13.02;7.28;;;-0.20;99.90;;;;;;4754819;30;20060;-78
2021/01/01 00:33:35;;;;;;;17.05;9.13;;;-0.20;99.90;;;;;;4754410;30;20052;-78
2021/01/01 00:36:03;;;;;;;12.60;8.45;;;-0.20;99.90;;;;;;4769150;29;20588;-78
2021/01/01 00:38:35;;;;;;;13.50;8.10;;;-0.20;99.90;;;;;;4754513;30;20067;-79
2021/01/01 00:41:06;;;;;;;16.75;8.63;;;-0.30;99.90;;;;;;4769327;30;20052;-77
2021/01/01 00:43:38;;;;;;;14.68;8.90;;;-0.30;99.90;;;;;;4769322;29;20052;-78
2021/01/01 00:46:09;;;;;;;14.70;8.00;;;-0.30;99.90;;;;;;4769351;29;20048;-78
2021/01/01 00:48:41;;;;;;;16.30;8.93;;;-0.30;99.90;;;;;;4754115;30;20105;-78
2021/01/01 00:51:13;;;;;;;14.68;7.88;;;-0.30;99.90;;;;;;4768934;30;20048;-78
2021/01/01 00:53:45;;;;;;;12.88;8.57;;;-0.30;99.90;;;;;;4783975;24;20146;-78
2021/01/01 00:56:21;;;;;;;15.00;8.43;;;-0.30;99.90;;;;;;4768152;29;20139;-78
2021/01/01 00:58:50;;;;;;;12.07;8.07;;;-0.30;99.90;;;;;;4769049;30;20412;-78
2021/01/01 01:01:24;;;;;;;12.23;7.80;;;-0.40;99.90;;;;;;4754663;30;20048;-78
2021/01/01 01:03:53;;;;;;;11.60;7.60;;;-0.30;99.90;;;;;;4754140;30;20390;-78
2021/01/01 01:06:26;;;;;;;11.55;7.03;;;-0.40;99.90;;;;;;4740478;30;20040;-78
2021/01/01 01:08:58;;;;;;;15.15;8.15;;;-0.40;99.90;;;;;;4755194;30;20424;-78
2021/01/01 01:11:31;;;;;;;14.23;8.40;;;-0.40;99.90;;;;;;4754137;30;20473;-78
2021/01/01 01:13:59;;;;;;;11.75;6.97;;;-0.40;99.90;;;;;;4754093;30;20129;-78
2021/01/01 01:16:27;;;;;;;18.98;8.95;;;-0.40;99.90;;;;;;4754386;30;20056;-78
2021/01/01 01:19:00;;;;;;;;;;;-0.40;99.90;;;;;;4740356;30;20056;-78
2021/01/01 01:21:27;;;;;;;11.75;7.55;;;-0.40;99.90;;;;;;4753921;30;19930;-78
2021/01/01 01:23:59;;;;;;;11.07;7.18;;;-0.30;99.90;;;;;;4883136;24;20082;-78
2021/01/01 01:26:31;;;;;;;16.92;10.98;;;-0.40;99.90;;;;;;4789787;29;20263;-78
2021/01/01 01:28:58;;;;;;;16.25;10.15;;;-0.40;99.90;;;;;;4774688;29;20059;-78
2021/01/01 01:31:24;;;;;;;13.38;8.43;;;-0.30;99.90;;;;;;4774666;29;20052;-78
2021/01/01 01:33:51;;;;;;;12.68;8.23;;;-0.30;99.90;;;;;;4803399;24;20148;-78
2021/01/01 01:36:23;;;;;;;14.52;9.35;;;-0.40;99.90;;;;;;4789503;30;20491;-78
2021/01/01 01:38:55;;;;;;;18.05;10.68;;;-0.40;99.90;;;;;;4789501;29;20083;-78
2021/01/01 01:41:21;;;;;;;16.85;9.82;;;-0.40;99.90;;;;;;4774221;30;20062;-78
2021/01/01 01:43:53;;;;;;;15.82;9.40;;;-0.50;99.90;;;;;;4789521;29;20051;-78
2021/01/01 01:46:54;;;;;;;19.20;11.18;;;-0.50;99.90;;;;;;4774576;29;20059;-78
2021/01/01 01:49:26;;;;;;;17.80;10.95;;;-0.60;99.90;;;;;;4774933;30;20058;-78
2021/01/01 01:51:58;;;;;;;17.45;11.30;;;-0.70;99.90;;;;;;4775224;29;20051;-79
2021/01/01 01:54:30;;;;;;;17.40;10.68;;;-0.70;99.90;;;;;;4775295;29;20134;-78
2021/01/01 01:56:57;;;;;;;17.70;11.43;;;-0.70;99.90;;;;;;4774366;29;20063;-78
2021/01/01 01:59:29;;;;;;;15.95;10.52;;;-0.70;99.90;;;;;;4789345;29;20063;-78
2021/01/01 02:01:56;;;;;;;19.10;12.50;;;-0.70;99.90;;;;;;4789654;29;20154;-78
2021/01/01 02:04:27;;;;;;;16.50;10.35;;;-0.70;99.90;;;;;;4774947;30;20115;-78
2021/01/01 02:06:59;;;;;;;19.77;11.00;;;-0.70;99.90;;;;;;4775366;29;20043;-78
2021/01/01 02:09:26;;;;;;;15.65;9.85;;;-0.70;99.90;;;;;;4773398;29;20062;-80
2021/01/01 02:11:52;;;;;;;14.50;10.13;;;-0.70;99.90;;;;;;4772443;29;20139;-80
2021/01/01 02:14:24;;;;;;;14.77;8.88;;;-0.70;99.90;;;;;;4787391;29;20546;-80
2021/01/01 02:16:51;;;;;;;15.50;9.40;;;-0.80;99.90;;;;;;4787344;29;20066;-78
2021/01/01 02:19:22;;;;;;;14.43;8.35;;;-0.80;99.90;;;;;;4775038;29;20052;-78
2021/01/01 02:21:49;;;;;;;16.67;9.43;;;-0.90;99.90;;;;;;4774025;29;20062;-78
2021/01/01 02:24:21;;;;;;;13.05;8.20;;;-0.80;99.90;;;;;;4790704;29;20048;-77
2021/01/01 02:26:53;;;;;;;12.55;7.13;;;-0.90;99.90;;;;;;4777882;29;20047;-78
2021/01/01 02:29:25;;;;;;;12.23;7.30;;;-0.90;99.90;;;;;;4778090;29;20134;-78
2021/01/01 02:32:00;;;;;;;12.88;7.55;;;-0.90;99.90;;;;;;4777600;29;20051;-78
2021/01/01 02:34:26;;;;;;;11.32;6.50;;;-0.80;99.90;;;;;;4806300;24;20059;-78
2021/01/01 02:36:53;;;;;;;11.48;6.70;;;-0.80;99.90;;;;;;4777182;29;20086;-77
2021/01/01 02:39:25;;;;;;;11.93;7.57;;;-0.80;99.90;;;;;;4777830;29;20058;-78
2021/01/01 02:41:56;;;;;;;12.07;6.97;;;-0.80;99.90;;;;;;4793023;29;20051;-77
2021/01/01 02:44:23;;;;;;;10.73;6.30;;;-0.80;99.90;;;;;;4791860;29;20055;-78
2021/01/01 02:47:05;;;;;;;9.85;5.95;;;-0.80;99.90;;;;;;4778120;29;20118;-78
2021/01/01 02:49:32;;;;;;;10.95;6.22;;;-0.80;99.90;;;;;;4777196;29;20508;-78
2021/01/01 02:52:00;;;;;;;10.15;5.85;;;-0.70;99.90;;;;;;4777088;29;20140;-77
2021/01/01 02:54:31;;;;;;;9.73;6.18;;;-0.70;99.90;;;;;;4777009;29;20047;-78
2021/01/01 02:57:03;;;;;;;11.23;6.25;;;-0.70;99.90;;;;;;4777620;29;20047;-78
2021/01/01 02:59:35;;;;;;;11.52;7.40;;;-0.70;99.90;;;;;;4792137;29;20408;-78
2021/01/01 03:02:06;;;;;;;10.23;7.22;;;-0.70;99.90;;;;;;4777986;29;20104;-78
2021/01/01 03:04:38;;;;;;;12.57;7.45;;;-0.60;99.90;;;;;;4777709;30;20048;-78
2021/01/01 03:07:10;;;;;;;12.57;7.63;;;-0.60;99.90;;;;;;4791526;29;20058;-78
2021/01/01 03:09:41;;;;;;;12.75;8.00;;;-0.60;99.90;;;;;;4777214;29;20047;-78
2021/01/01 03:12:08;;;;;;;11.73;7.72;;;-0.70;99.90;;;;;;4792436;30;20047;-78
2021/01/01 03:14:35;;;;;;;11.75;7.88;;;-0.60;99.90;;;;;;4791200;29;20511;-78
2021/01/01 03:17:02;;;;;;;14.35;8.52;;;-0.60;99.90;;;;;;4791902;29;20059;-78
2021/01/01 03:19:28;;;;;;;14.60;8.27;;;-0.60;99.90;;;;;;4776671;29;20055;-78
2021/01/01 03:22:00;;;;;;;11.80;7.45;;;-0.50;99.90;;;;;;4776999;29;20059;-78
2021/01/01 03:24:31;;;;;;;11.95;7.82;;;-0.50;99.90;;;;;;4776877;29;20049;-78
2021/01/01 03:27:03;;;;;;;12.70;7.57;;;-0.50;99.90;;;;;;4777228;29;20423;-78
2021/01/01 03:29:35;;;;;;;13.75;8.93;;;-0.50;99.90;;;;;;4791389;29;20058;-78
2021/01/01 03:32:06;;;;;;;16.95;10.63;;;-0.40;99.90;;;;;;4777101;29;20058;-78
2021/01/01 03:34:33;;;;;;;16.33;11.00;;;-0.40;99.90;;;;;;4790817;29;20108;-78
2021/01/01 03:37:05;;;;;;;15.65;10.18;;;-0.40;99.90;;;;;;4777221;29;20520;-78
2021/01/01 03:39:36;;;;;;;14.60;10.63;;;-0.40;99.90;;;;;;4776944;29;20082;-78
2021/01/01 03:42:03;;;;;;;13.20;9.77;;;-0.40;99.90;;;;;;4791313;29;20063;-78
2021/01/01 03:44:30;;;;;;;15.82;10.43;;;-0.40;99.90;;;;;;4775984;29;20512;-78
2021/01/01 03:46:57;;;;;;;13.45;8.43;;;-0.40;99.90;;;;;;4791198;29;20531;-77
2021/01/01 03:49:28;;;;;;;12.90;8.95;;;-0.30;99.90;;;;;;4790911;30;20048;-77
2021/01/01 03:51:55;;;;;;;11.80;8.65;;;-0.30;99.90;;;;;;4776181;29;20499;-78
2021/01/01 03:54:26;;;;;;;15.18;8.98;;;-0.20;99.90;;;;;;4777016;29;20055;-78
2021/01/01 03:56:58;;;;;;;31.90;14.98;;;-0.30;99.90;;;;;;4776308;29;20051;-77
2021/01/01 03:59:30;;;;;;;21.42;11.85;;;-0.30;99.90;;;;;;4777132;29;20052;-78
2021/01/01 04:01:56;;;;;;;15.50;10.38;;;-0.30;99.90;;;;;;4775686;30;20066;-78
2021/01/01 04:04:23;;;;;;;15.18;9.95;;;-0.30;99.90;;;;;;4790774;29;20085;-78
2021/01/01 04:06:55;;;;;;;14.35;8.93;;;-0.30;99.90;;;;;;4776687;29;20131;-78
2021/01/01 04:09:21;;;;;;;12.82;8.30;;;-0.30;99.90;;;;;;4775602;29;20051;-78
2021/01/01 04:11:53;;;;;;;12.95;7.50;;;-0.30;99.90;;;;;;4791047;29;20048;-78
2021/01/01 04:14:24;;;;;;;12.07;6.82;;;-0.30;99.90;;;;;;4776097;29;20063;-78
2021/01/01 04:16:51;;;;;;;11.02;6.38;;;-0.20;99.90;;;;;;4775365;29;20110;-77
2021/01/01 04:19:18;;;;;;;12.85;6.90;;;-0.20;99.90;;;;;;4791100;29;20051;-78
2021/01/01 04:21:49;;;;;;;10.63;7.25;;;-0.20;99.90;;;;;;4790565;29;20057;-78
2021/01/01 04:24:20;;;;;;;11.32;6.65;;;-0.10;99.90;;;;;;4776059;29;20062;-78
2021/01/01 04:26:52;;;;;;;12.00;6.63;;;-0.10;99.90;;;;;;4790550;29;20085;-77
2021/01/01 04:29:19;;;;;;;10.80;6.60;;;-0.10;99.90;;;;;;4790370;29;20059;-78
2021/01/01 04:31:46;;;;;;;10.63;6.90;;;-0.10;99.90;;;;;;4791259;30;20043;-78
2021/01/01 04:34:18;;;;;;;11.60;6.15;;;-0.10;99.90;;;;;;4775680;29;20043;-78
2021/01/01 04:36:49;;;;;;;10.13;6.20;;;-0.20;99.90;;;;;;4790517;29;20048;-78
2021/01/01 04:39:17;;;;;;;8.95;6.22;;;-0.20;99.90;;;;;;4790129;29;20574;-78
2021/01/01 04:41:44;;;;;;;10.32;6.53;;;-0.20;99.90;;;;;;4789793;29;20047;-78
2021/01/01 04:44:11;;;;;;;11.48;6.40;;;-0.20;99.90;;;;;;4789564;29;20062;-78
2021/01/01 04:46:43;;;;;;;9.13;5.85;;;-0.20;99.90;;;;;;4790354;29;20503;-77
2021/01/01 04:49:15;;;;;;;9.60;6.25;;;-0.20;99.90;;;;;;4790263;29;20047;-78
2021/01/01 04:51:43;;;;;;;15.38;6.70;;;-0.20;99.90;;;;;;4774641;29;20534;-78
2021/01/01 04:54:17;;;;;;;8.60;6.47;;;-0.20;99.90;;;;;;4790227;29;20496;-77
2021/01/01 04:56:49;;;;;;;11.70;6.50;;;-0.20;99.90;;;;;;4775983;29;20078;-77
2021/01/01 04:59:17;;;;;;;11.48;7.05;;;-0.10;99.90;;;;;;4789828;29;20051;-78
2021/01/01 05:01:45;;;;;;;10.57;6.55;;;-0.10;99.90;;;;;;4774975;29;20058;-78
2021/01/01 05:04:12;;;;;;;10.00;6.25;;;-0.10;99.90;;;;;;4789658;30;20051;-78
2021/01/01 05:06:44;;;;;;;11.00;6.55;;;0.00;99.90;;;;;;4775511;29;20048;-77
2021/01/01 05:09:12;;;;;;;10.95;6.75;;;0.00;99.90;;;;;;4789852;29;20076;-78
2021/01/01 05:11:44;;;;;;;11.68;6.63;;;-0.10;99.90;;;;;;4789628;29;20412;-78
2021/01/01 05:14:16;;;;;;;10.32;5.95;;;0.00;99.90;;;;;;4789343;29;20055;-77
2021/01/01 05:16:52;;;;;;;12.80;6.82;;;0.00;99.90;;;;;;4804626;29;20067;-77
2021/01/01 05:19:37;;;;;;;11.95;6.63;;;-0.10;99.90;;;;;;4789483;30;20118;-77
2021/01/01 05:22:06;;;;;;;10.88;6.70;;;0.00;99.90;;;;;;4789060;29;20043;-78
2021/01/01 05:24:44;;;;;;;10.40;6.57;;;0.00;99.90;;;;;;4789374;29;20052;-77
2021/01/01 05:27:17;;;;;;;11.32;7.35;;;0.00;99.90;;;;;;4775099;30;20142;-77
2021/01/01 05:29:54;;;;;;;10.18;6.75;;;0.00;99.90;;;;;;4789413;29;20051;-78
2021/01/01 05:32:22;;;;;;;16.63;9.85;;;0.00;99.90;;;;;;4774663;29;20056;-77
2021/01/01 05:34:49;;;;;;;15.77;10.10;;;0.10;99.90;;;;;;4789245;29;20062;-78
2021/01/01 05:37:32;;;;;;;18.30;11.32;;;0.10;99.90;;;;;;4789452;29;20066;-77
2021/01/01 05:40:09;;;;;;;21.23;11.98;;;0.10;99.90;;;;;;4774821;30;20569;-77
2021/01/01 05:42:37;;;;;;;18.38;11.23;;;0.00;99.90;;;;;;4804029;29;20146;-78
2021/01/01 05:45:17;;;;;;;20.98;11.88;;;0.00;99.90;;;;;;4789116;29;20063;-78
2021/01/01 05:48:05;;;;;;;16.58;10.75;;;0.00;99.90;;;;;;4790394;29;20051;-78
2021/01/01 05:50:33;;;;;;;20.42;11.10;;;0.00;99.90;;;;;;4789246;29;20405;-78
2021/01/01 05:53:11;;;;;;;20.13;10.95;;;0.00;99.90;;;;;;4789533;30;20104;-77
2021/01/01 05:55:38;;;;;;;20.25;11.98;;;0.00;99.90;;;;;;4789559;29;20075;-78
2021/01/01 05:58:26;;;;;;;16.77;10.77;;;0.00;99.90;;;;;;4790626;29;20047;-78
2021/01/01 06:00:55;;;;;;;19.10;11.13;;;0.00;99.90;;;;;;4792831;29;20063;-77
2021/01/01 06:03:26;;;;;;;18.52;11.13;;;0.00;99.90;;;;;;4777958;30;20055;-77
2021/01/01 06:05:55;;;;;;;17.67;10.40;;;0.00;99.90;;;;;;4792998;29;20090;-78
2021/01/01 06:08:29;;;;;;;16.73;9.90;;;0.00;99.90;;;;;;4792564;29;20133;-77
2021/01/01 06:11:06;;;;;;;13.43;9.00;;;0.00;99.90;;;;;;4792676;29;20055;-77
2021/01/01 06:13:37;;;;;;;11.80;7.43;;;0.10;99.90;;;;;;4778541;29;20057;-78
2021/01/01 06:16:07;;;;;;;13.27;7.80;;;0.10;99.90;;;;;;4792865;29;20092;-78
2021/01/01 06:18:46;;;;;;;9.88;6.30;;;0.10;99.90;;;;;;4778438;29;20059;-78
2021/01/01 06:21:32;;;;;;;14.57;8.43;;;0.10;99.90;;;;;;4776819;29;20545;-79
2021/01/01 06:24:05;;;;;;;18.17;12.20;;;0.20;99.90;;;;;;4777060;29;20058;-77
2021/01/01 06:26:36;;;;;;;20.83;12.10;;;0.20;99.90;;;;;;4791073;29;20054;-79
2021/01/01 06:29:09;;;;;;;18.63;12.15;;;0.20;99.90;;;;;;4776085;29;20525;-79
2021/01/01 06:31:44;;;;;;;20.08;11.30;;;0.10;99.90;;;;;;4775757;29;20086;-79
2021/01/01 06:34:29;;;;;;;16.02;11.20;;;0.10;99.90;;;;;;4923572;24;20063;-79
2021/01/01 06:37:01;;;;;;;18.08;11.50;;;0.10;99.90;;;;;;4789787;30;20051;-79
2021/01/01 06:39:45;;;;;;;19.50;11.45;;;0.10;99.90;;;;;;4789942;29;20055;-79
2021/01/01 06:42:16;;;;;;;17.92;11.93;;;0.10;99.90;;;;;;4775375;29;20146;-79
2021/01/01 06:44:48;;;;;;;18.33;11.52;;;0.10;99.90;;;;;;4775082;29;20423;-79
2021/01/01 06:47:42;;;;;;;18.35;11.45;;;0.10;99.90;;;;;;4775227;29;20122;-79
2021/01/01 06:50:27;;;;;;;21.27;12.18;;;0.10;99.90;;;;;;4789632;30;20103;-79
2021/01/01 06:53:04;;;;;;;20.00;11.93;;;0.00;99.90;;;;;;4774537;29;20051;-79
2021/01/01 06:55:39;;;;;;;21.02;11.95;;;0.00;99.90;;;;;;4789413;30;20043;-79
2021/01/01 06:58:11;;;;;;;18.55;11.82;;;0.00;99.90;;;;;;4789567;30;20068;-79
2021/01/01 07:00:49;;;;;;;21.75;12.77;;;0.00;99.90;;;;;;4775255;29;20058;-79
2021/01/01 07:03:29;;;;;;;19.73;11.95;;;0.00;99.90;;;;;;4789200;29;20538;-79
2021/01/01 07:06:00;;;;;;;21.63;13.95;;;0.00;99.90;;;;;;4789257;29;20043;-79
2021/01/01 07:08:39;;;;;;;24.40;13.75;;;0.00;99.90;;;;;;4774392;29;20083;-79
2021/01/01 07:11:11;;;;;;;20.08;12.73;;;0.00;99.90;;;;;;4788741;30;20047;-79
2021/01/01 07:13:48;;;;;;;21.83;12.70;;;0.00;99.90;;;;;;4774775;29;20130;-79
2021/01/01 07:16:22;;;;;;;20.27;12.35;;;-0.10;99.90;;;;;;4789073;29;20060;-79
2021/01/01 07:18:53;;;;;;;18.77;12.77;;;-0.10;99.90;;;;;;4789182;29;20047;-79
2021/01/01 07:21:25;;;;;;;20.50;12.50;;;0.00;99.90;;;;;;4789404;30;20053;-79
2021/01/01 07:23:57;;;;;;;18.73;12.68;;;0.00;99.90;;;;;;4790190;29;20540;-79
2021/01/01 07:26:27;;;;;;;19.00;11.65;;;0.00;99.90;;;;;;4788806;30;20044;-79
2021/01/01 07:28:56;;;;;;;20.10;12.35;;;0.00;99.90;;;;;;4789435;29;20461;-79
2021/01/01 07:31:28;;;;;;;17.83;10.35;;;0.10;99.90;;;;;;4774924;29;20062;-79
2021/01/01 07:34:07;;;;;;;19.88;11.27;;;0.10;99.90;;;;;;4774340;30;20500;-79
2021/01/01 07:36:34;;;;;;;17.52;10.57;;;0.10;99.90;;;;;;4773830;29;20059;-79
2021/01/01 07:39:07;;;;;;;16.30;10.60;;;0.20;99.90;;;;;;4774471;29;20043;-79
2021/01/01 07:41:39;;;;;;;18.38;11.85;;;0.20;99.90;;;;;;4774430;29;20058;-79
2021/01/01 07:44:06;;;;;;;16.77;10.60;;;0.20;99.90;;;;;;4774124;30;20051;-79
2021/01/01 07:46:37;;;;;;;19.23;12.20;;;0.20;99.90;;;;;;4774305;29;20062;-79
2021/01/01 07:49:04;;;;;;;18.85;11.27;;;0.20;99.90;;;;;;4788411;29;20475;-79
2021/01/01 07:51:39;;;;;;;22.38;12.32;;;0.20;99.90;;;;;;4788229;29;20043;-79
2021/01/01 07:54:11;;;;;;;21.77;12.45;;;0.20;99.90;;;;;;4788493;30;20043;-79
2021/01/01 07:56:42;;;;;;;18.90;12.07;;;0.20;99.90;;;;;;4773995;29;20055;-79
2021/01/01 07:59:09;;;;;;;22.23;13.35;;;0.30;99.90;;;;;;4788272;30;20055;-78
2021/01/01 08:01:36;;;;;;;25.20;13.85;;;0.30;99.90;;;;;;4788236;30;20470;-79
2021/01/01 08:04:13;;;;;;;20.75;13.50;;;0.30;99.90;;;;;;4788485;30;20051;-79
2021/01/01 08:06:46;;;;;;;23.52;15.32;;;0.30;99.90;;;;;;4788102;30;20508;-79
2021/01/01 08:09:17;;;;;;;25.85;16.10;;;0.40;99.90;;;;;;4773986;30;20138;-79
2021/01/01 08:11:45;;;;;;;24.38;16.33;;;0.40;99.90;;;;;;4773255;29;20047;-79
2021/01/01 08:14:20;;;;;;;24.27;14.27;;;0.40;99.90;;;;;;4773986;29;20071;-79
2021/01/01 08:16:47;;;;;;;23.85;14.00;;;0.40;99.90;;;;;;4788225;29;20431;-79
2021/01/01 08:19:23;;;;;;;24.48;14.38;;;0.50;99.90;;;;;;4773938;29;20130;-79
2021/01/01 08:22:07;;;;;;;20.02;13.85;;;0.50;99.90;;;;;;4787036;29;20598;-79
2021/01/01 08:24:42;;;;;;;24.23;16.17;;;0.60;99.90;;;;;;4773632;30;20141;-79
2021/01/01 08:27:14;;;;;;;23.58;15.43;;;0.60;99.90;;;;;;4787785;29;20062;-79
2021/01/01 08:29:46;;;;;;;27.35;16.48;;;0.60;99.90;;;;;;4788018;30;20051;-79
2021/01/01 08:32:19;;;;;;;35.25;19.70;;;0.70;99.90;;;;;;4773519;29;20058;-79
2021/01/01 08:34:52;;;;;;;31.80;19.08;;;0.70;99.90;;;;;;4787631;29;20062;-79
2021/01/01 08:37:25;;;;;;;31.67;20.05;;;0.80;99.90;;;;;;4788523;29;20082;-80
2021/01/01 08:40:07;;;;;;;27.80;16.23;;;0.90;99.90;;;;;;4773537;29;20141;-79
2021/01/01 08:42:40;;;;;;;30.42;18.17;;;0.90;99.90;;;;;;4788547;29;20100;-79
2021/01/01 08:45:13;;;;;;;30.10;18.33;;;0.90;99.90;;;;;;4776500;30;20043;-79
2021/01/01 08:47:48;;;;;;;28.65;15.93;;;1.00;99.90;;;;;;4780838;29;20138;-79
2021/01/01 08:50:25;;;;;;;25.42;16.08;;;1.00;99.90;;;;;;4769381;29;20044;-78
2021/01/01 08:53:04;;;;;;;27.48;16.48;;;0.90;99.90;;;;;;4784082;29;20072;-79
2021/01/01 08:55:35;;;;;;;25.15;16.00;;;1.00;99.90;;;;;;4768536;30;20420;-79
2021/01/01 08:58:15;;;;;;;26.88;16.40;;;1.00;99.90;;;;;;4768437;30;20063;-78
2021/01/01 09:00:47;;;;;;;24.67;14.68;;;1.10;99.90;;;;;;4785672;29;20142;-79
2021/01/01 09:03:16;;;;;;;19.08;12.52;;;1.10;99.90;;;;;;4804891;29;20144;-79
2021/01/01 09:05:54;;;;;;;21.85;13.02;;;1.10;99.90;;;;;;4790219;29;20055;-78
2021/01/01 09:08:26;;;;;;;17.60;11.13;;;1.20;99.90;;;;;;4790187;29;20051;-78
2021/01/01 09:10:57;;;;;;;13.13;9.27;;;1.20;99.90;;;;;;4805053;29;20142;-78
2021/01/01 09:13:32;;;;;;;16.42;11.27;;;1.30;99.90;;;;;;4952502;24;20083;-79
2021/01/01 09:16:11;;;;;;;17.38;10.73;;;1.30;99.90;;;;;;4786797;30;20043;-78
2021/01/01 09:18:39;;;;;;;24.10;18.75;;;1.40;99.90;;;;;;4786825;29;20055;-78
2021/01/01 09:21:14;;;;;;;34.78;17.10;;;1.40;99.90;;;;;;4786722;29;20051;-78
2021/01/01 09:23:53;;;;;;;25.10;16.55;;;1.50;99.90;;;;;;4786759;29;20051;-78
2021/01/01 09:26:28;;;;;;;21.35;14.38;;;1.60;99.90;;;;;;4772418;30;20063;-78
2021/01/01 09:29:03;;;;;;;33.15;18.90;;;1.70;99.90;;;;;;4786484;29;20139;-78
2021/01/01 09:31:38;;;;;;;44.08;24.55;;;1.70;99.90;;;;;;4772438;29;20047;-78
2021/01/01 09:34:09;;;;;;;61.13;33.22;;;1.70;99.90;;;;;;4786142;29;20047;-78
2021/01/01 09:36:41;;;;;;;61.08;33.17;;;1.80;99.90;;;;;;4787560;29;20503;-78
2021/01/01 09:39:08;;;;;;;57.38;33.67;;;1.80;99.90;;;;;;4778855;29;20047;-78
2021/01/01 09:41:36;;;;;;;34.83;19.75;;;1.90;99.90;;;;;;4778763;29;20061;-78
2021/01/01 09:44:06;;;;;;;32.17;19.25;;;1.90;99.90;;;;;;4801801;29;20043;-79
2021/01/01 09:46:40;;;;;;;42.85;25.42;;;2.00;99.90;;;;;;4787163;29;20055;-79
2021/01/01 09:49:12;;;;;;;33.45;20.95;;;2.00;99.90;;;;;;4787110;29;20092;-79
2021/01/01 09:51:43;;;;;;;30.30;18.20;;;2.00;99.90;;;;;;4774037;29;20511;-79
2021/01/01 09:54:10;;;;;;;22.33;14.32;;;2.00;99.90;;;;;;4786918;29;20169;-79
2021/01/01 09:56:42;;;;;;;22.48;13.70;;;2.00;99.90;;;;;;4788657;29;20047;-78
2021/01/01 09:59:09;;;;;;;20.15;13.50;;;2.00;99.90;;;;;;4788249;29;20424;-79
2021/01/01 10:01:36;;;;;;;21.10;12.35;;;2.00;99.90;;;;;;4772757;29;20059;-78
2021/01/01 10:04:02;;;;;;;18.45;11.40;;;2.00;99.90;;;;;;4786912;29;20059;-79
2021/01/01 10:06:29;;;;;;;19.17;13.32;;;2.00;99.90;;;;;;4801677;29;20490;-79
2021/01/01 10:09:01;;;;;;;23.45;13.90;;;2.10;99.90;;;;;;4773788;29;20500;-79
2021/01/01 10:11:32;;;;;;;20.08;13.32;;;2.10;99.90;;;;;;4754842;29;20530;-79
2021/01/01 10:14:04;;;;;;;18.63;11.98;;;2.20;99.90;;;;;;4826353;24;20073;-79
2021/01/01 10:16:31;;;;;;;19.58;12.77;;;2.20;99.90;;;;;;4755556;30;20146;-79
2021/01/01 10:19:03;;;;;;;23.05;14.02;;;2.20;99.90;;;;;;4770096;29;20105;-78
2021/01/01 10:21:34;;;;;;;23.63;13.73;;;2.30;99.90;;;;;;4769361;30;20055;-79
2021/01/01 10:24:06;;;;;;;20.27;12.70;;;2.30;99.90;;;;;;4819196;24;20419;-79
2021/01/01 10:26:38;;;;;;;19.60;11.57;;;2.40;99.90;;;;;;4787122;30;20050;-79
2021/01/01 10:29:05;;;;;;;16.90;11.57;;;2.40;99.90;;;;;;4786950;29;20072;-80
2021/01/01 10:31:36;;;;;;;22.63;11.48;;;2.50;99.90;;;;;;4786271;30;20047;-79
2021/01/01 10:34:08;;;;;;;20.50;15.60;;;2.50;99.90;;;;;;4774476;30;20108;-78
2021/01/01 10:36:35;;;;;;;16.00;10.23;;;2.60;99.90;;;;;;4773216;30;20081;-79
2021/01/01 10:39:03;;;;;;;14.40;9.40;;;2.70;99.90;;;;;;4774968;30;20412;-79
2021/01/01 10:41:36;;;;;;;13.23;8.02;;;2.70;99.90;;;;;;4772560;30;20112;-78
2021/01/01 10:44:07;;;;;;;14.80;9.80;;;2.80;99.90;;;;;;4772677;30;20118;-79
2021/01/01 10:46:35;;;;;;;15.63;9.57;;;2.80;99.90;;;;;;4791058;29;20055;-79
2021/01/01 10:49:03;;;;;;;13.80;9.63;;;2.80;99.90;;;;;;4786282;29;20051;-79
2021/01/01 10:51:30;;;;;;;14.63;9.13;;;2.80;99.90;;;;;;4781284;29;20043;-79
2021/01/01 10:54:02;;;;;;;11.48;7.75;;;2.80;99.90;;;;;;4796840;29;20057;-79
2021/01/01 10:56:29;;;;;;;14.43;8.65;;;2.80;99.90;;;;;;4780980;29;20047;-79
2021/01/01 10:59:01;;;;;;;11.18;7.90;;;2.90;99.90;;;;;;4774254;29;20142;-79
2021/01/01 11:01:32;;;;;;;13.50;9.43;;;2.80;99.90;;;;;;4760505;30;20056;-79
2021/01/01 11:04:04;;;;;;;18.13;11.77;;;2.80;99.90;;;;;;4791445;29;20054;-79
2021/01/01 11:06:38;;;;;;;13.60;8.50;;;2.80;99.90;;;;;;4791497;29;20047;-79
2021/01/01 11:09:04;;;;;;;13.40;8.82;;;2.80;99.90;;;;;;4792239;29;20055;-79
2021/01/01 11:11:31;;;;;;;15.68;9.00;;;2.80;99.90;;;;;;4777238;29;20051;-79
2021/01/01 11:14:09;;;;;;;27.55;17.40;;;2.70;99.90;;;;;;4792112;29;20104;-80
2021/01/01 19:06:45;;;;;;;119.97;38.50;;;2.10;99.90;;;;;;4810159;29;20066;-80
2021/01/01 19:09:15;;;;;;;74.18;27.33;;;2.00;99.90;;;;;;4804284;29;20052;-80
2021/01/01 19:16:38;;;;;;;97.68;32.08;;;2.00;99.90;;;;;;4810785;29;20038;-81
2021/01/01 19:19:20;;;;;;;56.53;24.20;;;2.00;99.90;;;;;;4798020;30;20059;-79
2021/01/01 19:21:51;;;;;;;87.22;29.35;;;2.00;99.90;;;;;;4788287;29;20047;-80
2021/01/01 19:24:31;;;;;;;112.60;36.60;;;2.00;99.90;;;;;;4803276;29;20511;-80
2021/01/01 19:27:02;;;;;;;51.30;21.98;;;2.00;99.90;;;;;;4785591;29;20059;-80
2021/01/01 19:29:39;;;;;;;45.00;19.15;;;2.00;99.90;;;;;;4785788;29;20112;-80
2021/01/01 19:32:11;;;;;;;33.05;17.25;;;2.00;99.90;;;;;;4801254;29;20062;-80
2021/01/01 19:39:33;;;;;;;30.45;15.75;;;2.00;99.90;;;;;;4809126;30;20030;-81
2021/01/01 19:47:36;;;;;;;54.00;22.08;;;2.00;99.90;;;;;;4807173;30;20134;-81
2021/01/01 20:10:53;;;;;;;46.17;23.27;;;2.00;99.90;;;;;;4848701;24;20052;-82
2021/01/01 20:14:02;;;;;;;56.28;24.88;;;1.90;99.90;;;;;;4907723;24;20069;-81
2021/01/01 20:24:38;;;;;;;47.95;22.58;;;2.00;99.90;;;;;;4763968;30;20055;-81
2021/01/01 20:31:34;;;;;;;42.28;22.58;;;1.90;99.90;;;;;;4773008;30;20069;-82
2021/01/01 20:34:54;;;;;;;41.28;20.60;;;1.90;99.90;;;;;;4770663;30;20124;-82
2021/01/01 20:38:36;;;;;;;39.95;20.55;;;1.80;99.90;;;;;;4774404;30;20055;-82
2021/01/01 20:42:20;;;;;;;41.72;21.38;;;1.90;99.90;;;;;;4759518;30;20048;-81
2021/01/01 20:50:34;;;;;;;37.42;19.10;;;1.80;99.90;;;;;;4738699;30;20062;-82
2021/01/01 21:14:00;;;;;;;38.47;17.15;;;1.80;99.90;;;;;;4803641;30;20035;-79
2021/01/01 21:16:42;;;;;;;36.90;17.52;;;1.80;99.90;;;;;;4776211;30;20143;-78
2021/01/01 21:20:03;;;;;;;36.40;18.73;;;1.80;99.90;;;;;;4764981;29;20588;-77
2021/01/01 21:22:44;;;;;;;34.45;17.98;;;1.90;99.90;;;;;;4754643;30;20069;-78
2021/01/01 21:26:07;;;;;;;33.03;17.70;;;1.90;99.90;;;;;;4752708;30;20059;-78
2021/01/01 21:29:06;;;;;;;36.13;17.30;;;1.90;99.90;;;;;;4751764;30;20056;-78
2021/01/01 21:32:01;;;;;;;36.10;17.80;;;1.90;99.90;;;;;;4766944;29;20143;-78
2021/01/01 21:34:48;;;;;;;30.42;17.25;;;1.80;99.90;;;;;;4766781;30;20057;-78
2021/01/01 21:37:40;;;;;;;38.20;17.48;;;1.80;99.90;;;;;;4752750;30;20106;-78
2021/01/01 21:40:45;;;;;;;36.10;18.45;;;1.80;99.90;;;;;;4766495;30;20132;-78
2021/01/01 21:43:42;;;;;;;34.00;17.02;;;1.80;99.90;;;;;;4769356;30;20097;-78
2021/01/01 21:46:22;;;;;;;31.75;16.80;;;1.80;99.90;;;;;;4766447;30;20048;-78
2021/01/01 21:49:14;;;;;;;38.33;18.58;;;1.80;99.90;;;;;;4766151;29;20052;-78
2021/01/01 21:51:57;;;;;;;34.67;17.40;;;1.80;99.90;;;;;;4766386;30;20516;-78
2021/01/01 21:54:29;;;;;;;29.00;15.55;;;1.90;99.90;;;;;;4766760;30;20044;-77
2021/01/01 21:57:00;;;;;;;33.03;17.30;;;1.90;99.90;;;;;;4766388;29;20621;-78
2021/01/01 21:59:32;;;;;;;28.58;16.70;;;1.80;99.90;;;;;;4752173;30;20075;-78
2021/01/01 22:02:04;;;;;;;33.67;16.17;;;1.90;99.90;;;;;;4765576;29;20076;-77
2021/01/01 22:04:31;;;;;;;33.00;16.98;;;1.80;99.90;;;;;;4766331;30;20054;-78
2021/01/01 22:06:57;;;;;;;31.42;16.52;;;1.90;99.90;;;;;;4766376;30;20087;-78
2021/01/01 22:09:24;;;;;;;31.30;17.45;;;1.90;99.90;;;;;;4766973;30;20131;-78
2021/01/01 22:11:50;;;;;;;33.33;17.80;;;1.80;99.90;;;;;;4766310;30;20798;-78
2021/01/01 22:14:21;;;;;;;30.25;16.05;;;1.80;99.90;;;;;;4766196;29;20082;-78